createdAt,value
2023-03-29T00:03:24.760Z,2.38
2023-03-29T00:13:48.165Z,2.15
2023-03-29T00:24:09.596Z,2.97
2023-03-29T00:34:32.831Z,2.85
2023-03-29T00:45:04.398Z,1.75
2023-03-29T00:55:30.529Z,2.30
2023-03-29T01:05:57.984Z,2.40
2023-03-29T01:16:22.651Z,2.30
2023-03-29T01:26:51.838Z,2.60
2023-03-29T01:37:21.910Z,4.15
2023-03-29T01:47:51.518Z,4.18
2023-03-29T01:58:18.273Z,4.28
2023-03-29T02:08:42.571Z,4.55
2023-03-29T02:19:06.731Z,4.57
2023-03-29T02:29:29.629Z,3.80
2023-03-29T02:39:54.883Z,3.70
2023-03-29T02:50:16.809Z,3.10
2023-03-29T03:00:44.711Z,1.75
2023-03-29T03:11:07.019Z,2.35
2023-03-29T03:21:29.740Z,2.55
2023-03-29T03:31:53.800Z,1.92
2023-03-29T03:42:52.867Z,1.92
2023-03-29T03:53:15.010Z,3.05
2023-03-29T04:03:56.757Z,2.03
2023-03-29T04:14:20.457Z,2.28
2023-03-29T04:25:03.812Z,3.88
2023-03-29T04:35:34.980Z,3.00
2023-03-29T04:45:59.301Z,2.10
2023-03-29T04:56:39.859Z,2.90
2023-03-29T05:07:26.927Z,3.40
2023-03-29T05:17:49.073Z,1.90
2023-03-29T05:28:12.860Z,2.40
2023-03-29T05:38:35.778Z,2.95
2023-03-29T05:48:59.611Z,3.38
2023-03-29T05:59:37.018Z,3.50
2023-03-29T06:10:00.307Z,2.53
2023-03-29T06:20:22.711Z,3.47
2023-03-29T06:30:51.379Z,3.42
2023-03-29T06:41:13.631Z,2.30
2023-03-29T06:51:57.029Z,3.30
2023-03-29T07:02:18.869Z,3.47
2023-03-29T07:12:47.213Z,3.60
2023-03-29T07:23:11.462Z,3.15
2023-03-29T07:33:43.144Z,2.55
2023-03-29T07:44:09.088Z,3.30
2023-03-29T07:54:32.988Z,2.40
2023-03-29T08:05:10.951Z,3.17
2023-03-29T08:15:53.910Z,3.20
2023-03-29T08:26:24.618Z,2.90
2023-03-29T08:36:47.952Z,2.95
2023-03-29T08:47:26.615Z,2.50
2023-03-29T08:57:52.436Z,2.78
2023-03-29T09:08:24.193Z,2.30
2023-03-29T09:19:02.559Z,2.50
2023-03-29T09:29:46.154Z,2.40
2023-03-29T09:40:16.564Z,2.42
2023-03-29T09:51:03.045Z,2.47
2023-03-29T10:01:37.867Z,2.63
2023-03-29T10:12:03.441Z,2.42
2023-03-29T10:22:28.415Z,2.55
2023-03-29T10:32:58.023Z,2.58
2023-03-29T10:43:27.081Z,2.90
2023-03-29T10:53:49.049Z,3.35
2023-03-29T11:04:22.988Z,3.10
2023-03-29T11:14:56.999Z,2.53
2023-03-29T11:25:29.708Z,3.58
2023-03-29T11:35:57.526Z,3.10
2023-03-29T11:46:26.447Z,3.47
2023-03-29T11:56:52.767Z,3.88
2023-03-29T12:07:20.580Z,3.70
2023-03-29T12:17:46.905Z,4.28
2023-03-29T12:28:28.441Z,3.25
2023-03-29T12:38:53.692Z,3.20
2023-03-29T12:49:38.669Z,3.33
2023-03-29T13:00:13.981Z,3.58
2023-03-29T13:10:40.692Z,2.70
2023-03-29T13:21:11.597Z,2.97
2023-03-29T13:31:40.417Z,3.55
2023-03-29T13:42:19.708Z,3.13
2023-03-29T13:52:49.947Z,2.92
2023-03-29T14:03:15.478Z,2.85
2023-03-29T14:13:38.555Z,3.20
2023-03-29T14:24:05.326Z,3.20
2023-03-29T14:34:28.681Z,4.03
2023-03-29T14:44:51.704Z,3.63
2023-03-29T14:55:18.196Z,4.10
2023-03-29T15:05:43.863Z,4.15
2023-03-29T15:16:08.365Z,5.50
2023-03-29T15:26:32.393Z,4.13
2023-03-29T15:36:57.280Z,5.38
2023-03-29T15:47:18.899Z,5.18
2023-03-29T15:57:43.167Z,5.53
2023-03-29T16:08:05.006Z,5.53
2023-03-29T16:18:27.945Z,4.95
2023-03-29T16:28:49.391Z,5.10
2023-03-29T16:39:13.724Z,4.95
2023-03-29T16:49:35.427Z,4.22
2023-03-29T16:59:57.983Z,3.97
2023-03-29T17:10:20.050Z,4.25
2023-03-29T17:20:43.301Z,5.30
2023-03-29T17:31:07.360Z,4.78
2023-03-29T17:41:31.062Z,5.03
2023-03-29T17:51:53.047Z,5.60
2023-03-29T18:02:17.764Z,5.47
2023-03-29T18:12:39.651Z,5.78
2023-03-29T18:23:02.719Z,5.07
2023-03-29T18:33:25.708Z,6.50
2023-03-29T18:43:48.424Z,6.55
2023-03-29T18:54:09.922Z,6.35
2023-03-29T19:04:33.389Z,5.75
2023-03-29T19:14:55.105Z,5.15
2023-03-29T19:25:18.070Z,5.78
2023-03-29T19:35:39.430Z,6.47
2023-03-29T19:46:10.348Z,6.75
2023-03-29T19:56:33.071Z,6.85
2023-03-29T20:06:57.611Z,7.70
2023-03-29T20:17:19.414Z,6.45
2023-03-29T20:27:42.981Z,6.72
2023-03-29T20:38:04.771Z,5.38
2023-03-29T20:48:31.196Z,4.85
2023-03-29T20:58:55.694Z,5.25
2023-03-29T21:09:19.149Z,5.72
2023-03-29T21:19:41.288Z,6.75
2023-03-29T21:30:04.760Z,5.50
2023-03-29T21:40:26.180Z,6.45
2023-03-29T21:50:50.918Z,5.53
2023-03-29T22:01:12.317Z,6.28
2023-03-29T22:11:35.543Z,4.88
2023-03-29T22:22:01.250Z,5.38
2023-03-29T22:32:24.243Z,5.20
2023-03-29T22:42:46.052Z,5.50
2023-03-29T22:53:09.110Z,4.70
2023-03-29T23:03:30.511Z,5.60
2023-03-29T23:13:53.967Z,5.85
2023-03-29T23:24:18.384Z,5.93
2023-03-29T23:34:42.144Z,6.00
2023-03-29T23:45:04.351Z,5.25
2023-03-29T23:55:27.541Z,5.45
